createdAt,value
2023-03-10T00:00:37.360Z,3.50
2023-03-10T00:03:04.714Z,3.10
2023-03-10T00:05:31.984Z,3.00
2023-03-10T00:07:59.176Z,2.60
2023-03-10T00:10:26.433Z,2.80
2023-03-10T00:12:53.697Z,2.50
2023-03-10T00:15:20.853Z,2.97
2023-03-10T00:17:50.122Z,2.70
2023-03-10T00:20:17.303Z,2.87
2023-03-10T00:22:44.558Z,3.03
2023-03-10T00:25:12.546Z,3.00
2023-03-10T00:27:39.688Z,3.13
2023-03-10T00:30:07.110Z,2.90
2023-03-10T00:32:36.009Z,2.77
2023-03-10T00:35:03.343Z,2.87
2023-03-10T00:37:30.874Z,2.73
2023-03-10T00:39:58.131Z,2.90
2023-03-10T00:42:25.587Z,2.80
2023-03-10T00:44:53.397Z,2.70
2023-03-10T00:47:20.563Z,3.13
2023-03-10T00:49:48.317Z,2.80
2023-03-10T00:52:15.443Z,2.90
2023-03-10T00:54:42.683Z,2.93
2023-03-10T00:57:09.921Z,2.90
2023-03-10T00:59:49.480Z,3.03
2023-03-10T01:02:17.054Z,2.93
2023-03-10T01:04:44.268Z,2.93
2023-03-10T01:07:11.482Z,3.00
2023-03-10T01:09:38.772Z,2.87
2023-03-10T01:12:06.126Z,2.53
2023-03-10T01:14:33.253Z,2.60
2023-03-10T01:17:00.410Z,2.80
2023-03-10T01:19:27.560Z,2.80
2023-03-10T01:21:54.682Z,2.87
2023-03-10T01:24:21.841Z,2.80
2023-03-10T01:26:49.025Z,2.80
2023-03-10T01:29:16.258Z,2.63
2023-03-10T01:31:43.518Z,2.93
2023-03-10T01:34:10.699Z,2.60
2023-03-10T01:36:37.827Z,2.70
2023-03-10T01:39:05.052Z,3.00
2023-03-10T01:41:32.159Z,3.03
2023-03-10T01:43:59.296Z,2.70
2023-03-10T01:46:32.438Z,2.90
2023-03-10T01:49:23.562Z,2.70
2023-03-10T01:52:14.078Z,2.73
2023-03-10T01:54:43.636Z,2.70
2023-03-10T01:57:11.803Z,2.67
2023-03-10T01:59:38.997Z,2.70
2023-03-10T02:02:06.147Z,2.90
2023-03-10T02:04:38.353Z,2.60
2023-03-10T02:07:07.079Z,2.80
2023-03-10T02:09:36.028Z,2.60
2023-03-10T02:12:04.333Z,3.20
2023-03-10T02:14:31.987Z,2.77
2023-03-10T02:16:59.777Z,2.80
2023-03-10T02:19:41.773Z,2.50
2023-03-10T02:22:10.629Z,2.80
2023-03-10T02:24:47.966Z,2.70
2023-03-10T02:27:25.982Z,2.70
2023-03-10T02:29:59.713Z,2.63
2023-03-10T02:32:27.975Z,2.70
2023-03-10T02:34:55.130Z,2.40
2023-03-10T02:37:27.218Z,2.87
2023-03-10T02:39:54.444Z,2.43
2023-03-10T02:42:22.503Z,2.40
2023-03-10T02:44:50.044Z,2.40
2023-03-10T02:47:17.520Z,3.00
2023-03-10T02:49:44.789Z,2.70
2023-03-10T02:52:26.564Z,2.60
2023-03-10T02:54:53.747Z,2.53
2023-03-10T02:57:20.874Z,2.40
2023-03-10T02:59:48.026Z,2.67
2023-03-10T03:02:15.163Z,2.77
2023-03-10T03:04:42.340Z,2.40
2023-03-10T03:07:09.444Z,2.43
2023-03-10T03:09:36.656Z,2.70
2023-03-10T03:12:03.948Z,2.40
2023-03-10T03:14:31.065Z,2.53
2023-03-10T03:16:58.260Z,2.83
2023-03-10T03:19:25.641Z,2.30
2023-03-10T03:21:53.778Z,2.50
2023-03-10T03:24:21.276Z,2.40
2023-03-10T03:26:48.562Z,2.50
2023-03-10T03:29:15.792Z,2.67
2023-03-10T03:31:43.058Z,2.30
2023-03-10T03:34:10.300Z,2.37
2023-03-10T03:36:37.520Z,2.33
2023-03-10T03:39:06.613Z,2.43
2023-03-10T03:41:34.343Z,2.47
2023-03-10T03:44:01.580Z,2.20
2023-03-10T03:46:28.850Z,2.50
2023-03-10T03:48:56.146Z,2.50
2023-03-10T03:51:23.365Z,2.73
2023-03-10T03:53:50.535Z,2.40
2023-03-10T03:56:17.676Z,2.50
2023-03-10T03:58:44.894Z,2.23
2023-03-10T04:01:12.896Z,2.37
2023-03-10T04:03:40.139Z,2.40
2023-03-10T04:06:08.376Z,2.33
2023-03-10T04:08:35.547Z,2.40
2023-03-10T04:11:02.692Z,2.63
2023-03-10T04:13:29.804Z,2.53
2023-03-10T04:15:57.899Z,2.60
2023-03-10T04:18:25.293Z,2.70
2023-03-10T04:20:52.421Z,2.77
2023-03-10T04:23:19.706Z,2.47
2023-03-10T04:25:46.855Z,2.23
2023-03-10T04:28:13.983Z,2.33
2023-03-10T04:30:45.176Z,2.50
2023-03-10T04:33:12.697Z,2.43
2023-03-10T04:35:44.129Z,2.40
2023-03-10T04:38:11.285Z,2.23
2023-03-10T04:40:38.404Z,2.30
2023-03-10T04:43:05.815Z,2.40
2023-03-10T04:45:33.103Z,2.37
2023-03-10T04:48:00.423Z,2.50
2023-03-10T04:50:27.576Z,2.60
2023-03-10T04:52:54.745Z,2.50
2023-03-10T04:55:21.914Z,2.23
2023-03-10T04:57:49.062Z,2.33
2023-03-10T05:00:16.311Z,2.70
2023-03-10T05:02:43.668Z,2.60
2023-03-10T05:05:11.334Z,2.63
2023-03-10T05:07:38.467Z,2.53
2023-03-10T05:10:05.896Z,2.40
2023-03-10T05:12:33.029Z,2.50
2023-03-10T05:15:00.182Z,2.33
2023-03-10T05:17:30.530Z,2.30
2023-03-10T05:20:00.601Z,2.40
2023-03-10T05:22:27.775Z,2.67
2023-03-10T05:24:54.912Z,2.50
2023-03-10T05:27:22.209Z,2.47
2023-03-10T05:29:49.589Z,2.40
2023-03-10T05:32:16.939Z,2.47
2023-03-10T05:34:44.104Z,2.33
2023-03-10T05:37:11.293Z,2.80
2023-03-10T05:39:38.476Z,2.50
2023-03-10T05:42:05.765Z,2.53
2023-03-10T05:44:32.884Z,2.60
2023-03-10T05:47:00.264Z,2.53
2023-03-10T05:49:27.445Z,2.53
2023-03-10T05:51:54.607Z,3.07
2023-03-10T05:54:21.737Z,2.37
2023-03-10T05:56:48.935Z,2.70
2023-03-10T05:59:16.145Z,2.83
2023-03-10T06:01:43.362Z,2.80
2023-03-10T06:04:10.601Z,2.97
2023-03-10T06:06:38.364Z,2.90
2023-03-10T06:09:05.635Z,2.47
2023-03-10T06:11:33.471Z,2.70
2023-03-10T06:14:00.605Z,2.60
2023-03-10T06:16:27.802Z,2.67
2023-03-10T06:18:55.667Z,2.70
2023-03-10T06:21:22.921Z,2.90
2023-03-10T06:23:50.219Z,3.13
2023-03-10T06:26:17.778Z,2.77
2023-03-10T06:28:45.746Z,3.03
2023-03-10T06:31:14.342Z,2.80
2023-03-10T06:33:41.605Z,3.00
2023-03-10T06:36:09.732Z,3.37
2023-03-10T06:38:36.959Z,3.10
2023-03-10T06:41:04.430Z,2.97
2023-03-10T06:43:33.206Z,2.70
2023-03-10T06:46:03.093Z,3.27
2023-03-10T06:48:30.255Z,2.80
2023-03-10T06:50:57.404Z,3.40
2023-03-10T06:53:24.621Z,3.17
2023-03-10T06:56:02.033Z,3.13
2023-03-10T06:58:29.834Z,3.10
2023-03-10T07:00:57.155Z,3.13
2023-03-10T07:03:26.319Z,3.20
2023-03-10T07:05:53.833Z,3.17
2023-03-10T07:08:21.112Z,3.63
2023-03-10T07:10:48.778Z,4.03
2023-03-10T07:13:17.484Z,3.83
2023-03-10T07:15:45.462Z,4.13
2023-03-10T07:18:13.312Z,4.43
2023-03-10T07:20:41.265Z,4.60
2023-03-10T07:23:08.466Z,4.53
2023-03-10T07:25:36.490Z,5.00
2023-03-10T07:28:03.633Z,4.97
2023-03-10T07:30:31.081Z,4.97
2023-03-10T07:32:58.215Z,5.07
2023-03-10T07:35:25.405Z,4.80
2023-03-10T07:37:52.610Z,4.20
2023-03-10T07:40:24.805Z,4.83
2023-03-10T07:42:54.666Z,4.50
2023-03-10T07:45:22.523Z,4.80
2023-03-10T07:47:51.091Z,4.63
2023-03-10T07:50:18.705Z,4.20
2023-03-10T07:52:45.901Z,5.00
2023-03-10T07:55:13.078Z,4.50
2023-03-10T07:57:40.303Z,5.00
2023-03-10T08:00:07.774Z,5.40
2023-03-10T08:02:35.736Z,4.90
2023-03-10T08:05:02.990Z,5.40
2023-03-10T08:07:31.885Z,5.30
2023-03-10T08:09:59.189Z,5.27
2023-03-10T08:12:26.351Z,5.00
2023-03-10T08:14:53.516Z,5.27
2023-03-10T08:17:20.764Z,4.93
2023-03-10T08:19:47.950Z,5.33
2023-03-10T08:22:15.156Z,4.90
2023-03-10T08:24:42.316Z,5.10
2023-03-10T08:27:09.919Z,5.13
2023-03-10T08:29:37.772Z,5.23
2023-03-10T08:32:05.055Z,5.03
2023-03-10T08:34:33.262Z,5.20
2023-03-10T08:37:00.930Z,5.30
2023-03-10T08:39:28.546Z,5.13
2023-03-10T08:41:55.750Z,4.63
2023-03-10T08:44:22.895Z,4.80
2023-03-10T08:46:50.829Z,4.77
2023-03-10T08:49:19.579Z,4.50
2023-03-10T08:51:46.760Z,4.00
2023-03-10T08:54:15.722Z,3.60
2023-03-10T08:56:42.869Z,3.70
2023-03-10T08:59:10.241Z,3.97
2023-03-10T09:01:37.752Z,4.20
2023-03-10T09:04:06.278Z,4.23
2023-03-10T09:06:33.480Z,4.10
2023-03-10T09:09:00.760Z,4.30
2023-03-10T09:11:29.629Z,4.30
2023-03-10T09:13:56.813Z,4.20
2023-03-10T09:16:24.024Z,4.67
2023-03-10T09:18:51.223Z,4.20
2023-03-10T09:21:19.293Z,4.50
2023-03-10T09:23:47.391Z,4.37
2023-03-10T09:26:14.605Z,3.93
2023-03-10T09:28:41.769Z,4.20
2023-03-10T09:31:09.919Z,4.30
2023-03-10T09:33:37.560Z,4.57
2023-03-10T09:36:07.214Z,4.30
2023-03-10T09:38:35.560Z,4.60
2023-03-10T09:41:02.798Z,4.37
2023-03-10T09:43:31.400Z,4.63
2023-03-10T09:46:05.167Z,4.83
2023-03-10T09:48:53.831Z,4.67
2023-03-10T09:51:25.254Z,4.40
2023-03-10T09:53:55.202Z,4.87
2023-03-10T09:56:36.117Z,5.00
2023-03-10T09:59:14.120Z,5.17
2023-03-10T10:01:44.293Z,4.90
2023-03-10T10:04:17.637Z,4.97
2023-03-10T10:06:46.768Z,4.90
2023-03-10T10:09:20.101Z,4.40
2023-03-10T10:11:47.287Z,4.90
2023-03-10T10:14:22.427Z,4.97
2023-03-10T10:16:53.582Z,5.10
2023-03-10T10:19:22.198Z,4.30
2023-03-10T10:21:49.316Z,4.60
2023-03-10T10:24:16.826Z,4.33
2023-03-10T10:26:43.986Z,5.17
2023-03-10T10:29:19.338Z,4.83
2023-03-10T10:32:06.772Z,4.60
2023-03-10T10:34:34.628Z,4.50
2023-03-10T10:37:02.159Z,4.83
2023-03-10T10:39:38.667Z,4.87
2023-03-10T10:42:46.602Z,4.80
2023-03-10T10:45:40.019Z,4.47
2023-03-10T10:48:07.253Z,4.93
2023-03-10T10:50:35.674Z,4.80
2023-03-10T10:53:21.157Z,4.70
2023-03-10T10:55:59.332Z,4.57
2023-03-10T10:58:29.985Z,4.83
2023-03-10T11:00:59.107Z,4.80
2023-03-10T11:03:26.278Z,4.43
2023-03-10T11:05:55.429Z,4.70
2023-03-10T11:08:37.439Z,5.40
2023-03-10T11:11:19.098Z,3.90
2023-03-10T11:13:52.531Z,4.47
2023-03-10T11:16:40.180Z,4.40
2023-03-10T11:19:18.970Z,4.40
2023-03-10T11:21:48.726Z,4.60
2023-03-10T11:24:26.384Z,4.77
2023-03-10T11:27:09.327Z,4.63
2023-03-10T11:29:48.680Z,3.97
2023-03-10T11:32:27.719Z,4.27
2023-03-10T11:34:55.060Z,4.60
2023-03-10T11:37:30.105Z,4.67
2023-03-10T11:40:24.580Z,4.90
2023-03-10T11:43:07.777Z,4.73
2023-03-10T11:45:48.636Z,4.07
2023-03-10T11:48:41.908Z,5.27
2023-03-10T11:51:13.318Z,4.33
2023-03-10T11:53:51.988Z,5.27
2023-03-10T11:56:21.244Z,5.17
2023-03-10T11:59:06.441Z,5.07
2023-03-10T12:01:35.064Z,4.83
2023-03-10T12:04:11.400Z,4.57
2023-03-10T12:06:47.579Z,5.50
2023-03-10T12:09:23.250Z,5.57
2023-03-10T12:11:50.543Z,5.10
2023-03-10T12:14:17.683Z,4.93
2023-03-10T12:16:45.090Z,5.00
2023-03-10T12:19:12.269Z,5.20
2023-03-10T12:21:39.539Z,5.47
2023-03-10T12:24:06.748Z,5.10
2023-03-10T12:26:40.802Z,5.57
2023-03-10T12:29:24.065Z,4.93
2023-03-10T12:31:52.522Z,4.37
2023-03-10T12:34:22.436Z,5.67
2023-03-10T12:37:03.374Z,5.27
2023-03-10T12:39:43.223Z,4.80
2023-03-10T12:42:22.745Z,5.70
2023-03-10T12:44:59.926Z,4.90
2023-03-10T12:47:30.408Z,5.20
2023-03-10T12:50:06.035Z,4.60
2023-03-10T12:52:44.983Z,5.37
2023-03-10T12:55:21.153Z,5.07
2023-03-10T12:58:05.130Z,5.33
2023-03-10T13:00:47.211Z,5.47
2023-03-10T13:03:18.940Z,5.10
2023-03-10T13:05:57.370Z,5.10
2023-03-10T13:08:43.432Z,5.23
2023-03-10T13:11:13.576Z,5.43
2023-03-10T13:13:41.999Z,4.87
2023-03-10T13:16:19.074Z,5.23
2023-03-10T13:18:50.286Z,4.47
2023-03-10T13:21:31.691Z,5.03
2023-03-10T13:24:00.397Z,5.63
2023-03-10T13:26:27.747Z,5.13
2023-03-10T13:28:56.943Z,5.00
2023-03-10T13:31:25.595Z,5.27
2023-03-10T13:33:54.804Z,5.87
2023-03-10T13:36:23.345Z,5.47
2023-03-10T13:38:52.229Z,5.30
2023-03-10T13:41:19.830Z,4.97
2023-03-10T13:43:48.561Z,5.57
2023-03-10T13:46:18.532Z,5.10
2023-03-10T13:48:46.956Z,4.80
2023-03-10T13:51:20.174Z,5.10
2023-03-10T13:53:48.161Z,4.90
2023-03-10T13:56:20.406Z,5.20
2023-03-10T13:58:48.249Z,4.37
2023-03-10T14:01:20.201Z,4.60
2023-03-10T14:03:52.342Z,4.67
2023-03-10T14:06:19.529Z,4.43
2023-03-10T14:08:46.671Z,4.37
2023-03-10T14:11:32.451Z,4.70
2023-03-10T14:14:00.750Z,5.07
2023-03-10T14:16:46.472Z,4.70
2023-03-10T14:19:13.838Z,5.40
2023-03-10T14:21:52.303Z,5.23
2023-03-10T14:24:27.958Z,4.57
2023-03-10T14:26:59.913Z,4.70
2023-03-10T14:29:27.278Z,4.67
2023-03-10T14:31:54.480Z,4.73
2023-03-10T14:34:21.628Z,4.90
2023-03-10T14:36:48.794Z,4.40
2023-03-10T14:39:15.935Z,4.53
2023-03-10T14:41:43.076Z,4.90
2023-03-10T14:44:10.731Z,5.00
2023-03-10T14:46:38.197Z,4.70
2023-03-10T14:49:07.769Z,4.60
2023-03-10T14:51:36.442Z,5.00
2023-03-10T14:54:04.221Z,4.93
2023-03-10T14:56:32.512Z,4.47
2023-03-10T14:59:02.240Z,4.80
2023-03-10T15:01:29.778Z,4.77
2023-03-10T15:03:56.991Z,4.53
2023-03-10T15:06:24.145Z,4.63
2023-03-10T15:08:51.286Z,5.27
2023-03-10T15:11:30.274Z,4.60
2023-03-10T15:14:03.516Z,5.00
2023-03-10T15:16:30.667Z,5.20
2023-03-10T15:18:57.800Z,5.00
2023-03-10T15:21:25.174Z,5.07
2023-03-10T15:23:52.364Z,5.10
2023-03-10T15:26:19.535Z,5.03
2023-03-10T15:28:46.670Z,5.40
2023-03-10T15:31:13.906Z,4.67
2023-03-10T15:33:41.061Z,5.13
2023-03-10T15:36:09.206Z,5.07
2023-03-10T15:38:36.474Z,4.93
2023-03-10T15:41:05.652Z,5.10
2023-03-10T15:43:32.835Z,5.10
2023-03-10T15:45:59.949Z,4.70
2023-03-10T15:48:27.130Z,5.30
2023-03-10T15:50:54.284Z,5.27
2023-03-10T15:53:21.524Z,4.47
2023-03-10T15:55:52.208Z,4.80
2023-03-10T15:58:19.558Z,4.60
2023-03-10T16:00:46.740Z,4.50
2023-03-10T16:03:17.764Z,4.97
2023-03-10T16:05:48.752Z,4.73
2023-03-10T16:08:16.272Z,5.27
2023-03-10T16:10:51.964Z,5.17
2023-03-10T16:13:19.216Z,5.13
2023-03-10T16:15:46.902Z,5.40
2023-03-10T16:18:14.166Z,5.63
2023-03-10T16:20:41.311Z,5.53
2023-03-10T16:23:08.434Z,5.03
2023-03-10T16:25:35.738Z,5.40
2023-03-10T16:28:02.883Z,5.23
2023-03-10T16:30:30.114Z,5.70
2023-03-10T16:33:00.778Z,6.23
2023-03-10T16:35:28.751Z,5.67
2023-03-10T16:37:55.941Z,6.30
2023-03-10T16:40:23.235Z,5.20
2023-03-10T16:42:50.663Z,5.70
2023-03-10T16:45:17.829Z,5.93
2023-03-10T16:47:45.686Z,5.27
2023-03-10T16:50:14.103Z,5.87
2023-03-10T16:52:42.407Z,5.67
2023-03-10T16:55:16.856Z,5.93
2023-03-10T16:57:45.807Z,6.10
2023-03-10T17:00:13.459Z,5.80
2023-03-10T17:02:40.606Z,5.77
2023-03-10T17:05:08.681Z,6.10
2023-03-10T17:07:40.484Z,6.17
2023-03-10T17:10:11.146Z,5.13
2023-03-10T17:12:38.512Z,5.57
2023-03-10T17:15:05.879Z,6.27
2023-03-10T17:17:33.154Z,6.40
2023-03-10T17:20:04.772Z,5.30
2023-03-10T17:22:31.954Z,5.37
2023-03-10T17:24:59.217Z,6.43
2023-03-10T17:27:26.437Z,6.40
2023-03-10T17:29:53.588Z,5.93
2023-03-10T17:32:20.741Z,5.07
2023-03-10T17:34:52.018Z,6.10
2023-03-10T17:37:19.448Z,7.20
2023-03-10T17:39:48.062Z,5.90
2023-03-10T17:42:15.340Z,6.87
2023-03-10T17:44:42.506Z,6.20
2023-03-10T17:47:09.708Z,6.30
2023-03-10T17:49:36.828Z,6.47
2023-03-10T17:52:04.044Z,6.27
2023-03-10T17:54:31.233Z,6.53
2023-03-10T17:56:58.420Z,6.70
2023-03-10T17:59:25.561Z,6.10
2023-03-10T18:01:52.972Z,6.23
2023-03-10T18:04:20.210Z,6.43
2023-03-10T18:06:47.350Z,6.30
2023-03-10T18:09:15.293Z,6.40
2023-03-10T18:11:42.631Z,6.50
2023-03-10T18:14:09.766Z,6.43
2023-03-10T18:16:39.335Z,6.50
2023-03-10T18:19:09.949Z,6.07
2023-03-10T18:21:37.811Z,6.20
2023-03-10T18:24:05.091Z,6.47
2023-03-10T18:26:32.333Z,6.57
2023-03-10T18:29:00.105Z,6.07
2023-03-10T18:31:28.593Z,6.53
2023-03-10T18:33:55.924Z,6.90
2023-03-10T18:36:24.589Z,6.67
2023-03-10T18:38:52.066Z,7.17
2023-03-10T18:41:20.099Z,6.57
2023-03-10T18:43:47.335Z,6.20
2023-03-10T18:46:14.543Z,6.60
2023-03-10T18:48:42.032Z,6.37
2023-03-10T18:51:09.173Z,6.63
2023-03-10T18:53:37.760Z,6.67
2023-03-10T18:56:05.007Z,6.37
2023-03-10T18:58:33.059Z,6.80
2023-03-10T19:01:00.265Z,6.20
2023-03-10T19:03:30.857Z,7.80
2023-03-10T19:05:58.380Z,6.50
2023-03-10T19:08:28.544Z,6.73
2023-03-10T19:10:56.648Z,7.00
2023-03-10T19:13:24.031Z,6.70
2023-03-10T19:15:51.233Z,6.70
2023-03-10T19:18:18.438Z,6.57
2023-03-10T19:20:46.490Z,7.00
2023-03-10T19:23:14.382Z,6.93
2023-03-10T19:25:41.605Z,7.07
2023-03-10T19:28:08.797Z,5.57
2023-03-10T19:30:36.452Z,6.53
2023-03-10T19:33:03.626Z,6.50
2023-03-10T19:35:31.010Z,6.60
2023-03-10T19:37:58.278Z,6.20
2023-03-10T19:40:25.476Z,6.63
2023-03-10T19:42:53.121Z,6.50
2023-03-10T19:45:20.311Z,5.70
2023-03-10T19:47:47.543Z,6.80
2023-03-10T19:50:16.280Z,6.53
2023-03-10T19:52:47.205Z,6.40
2023-03-10T19:55:19.558Z,6.03
2023-03-10T19:57:48.377Z,6.27
2023-03-10T20:00:17.255Z,6.40
2023-03-10T20:02:47.509Z,6.33
2023-03-10T20:05:15.444Z,6.50
2023-03-10T20:07:44.221Z,5.83
2023-03-10T20:10:11.877Z,6.20
2023-03-10T20:12:39.114Z,6.33
2023-03-10T20:15:06.675Z,5.87
2023-03-10T20:17:33.961Z,6.40
2023-03-10T20:20:03.448Z,5.63
2023-03-10T20:22:30.684Z,6.10
2023-03-10T20:24:58.007Z,6.30
2023-03-10T20:27:25.381Z,6.60
2023-03-10T20:29:52.490Z,6.27
2023-03-10T20:32:19.683Z,6.17
2023-03-10T20:34:46.832Z,5.87
2023-03-10T20:37:14.335Z,6.07
2023-03-10T20:39:41.581Z,6.07
2023-03-10T20:42:08.680Z,6.33
2023-03-10T20:44:37.702Z,5.63
2023-03-10T20:47:04.863Z,6.23
2023-03-10T20:49:32.044Z,6.10
2023-03-10T20:51:59.160Z,5.60
2023-03-10T20:54:26.344Z,5.90
2023-03-10T20:56:53.607Z,5.80
2023-03-10T20:59:20.725Z,6.30
2023-03-10T21:01:48.051Z,5.63
2023-03-10T21:04:15.198Z,6.20
2023-03-10T21:06:42.541Z,6.20
2023-03-10T21:09:09.678Z,5.97
2023-03-10T21:11:36.861Z,6.00
2023-03-10T21:14:04.182Z,5.47
2023-03-10T21:16:31.744Z,6.07
2023-03-10T21:18:58.981Z,5.53
2023-03-10T21:21:26.191Z,5.27
2023-03-10T21:23:53.316Z,6.53
2023-03-10T21:26:22.327Z,5.53
2023-03-10T21:28:49.850Z,6.00
2023-03-10T21:31:17.166Z,5.93
2023-03-10T21:33:44.508Z,5.20
2023-03-10T21:36:15.615Z,5.53
2023-03-10T21:38:43.077Z,5.10
2023-03-10T21:41:11.424Z,5.93
2023-03-10T21:43:38.557Z,5.60
2023-03-10T21:46:06.476Z,5.27
2023-03-10T21:48:33.704Z,5.53
2023-03-10T21:51:00.904Z,5.37
2023-03-10T21:53:29.607Z,5.17
2023-03-10T21:55:57.607Z,5.17
2023-03-10T21:58:25.974Z,5.37
2023-03-10T22:00:55.984Z,5.40
2023-03-10T22:03:23.346Z,5.10
2023-03-10T22:05:50.628Z,5.57
2023-03-10T22:08:17.818Z,5.30
2023-03-10T22:10:45.885Z,5.37
2023-03-10T22:13:13.048Z,5.30
2023-03-10T22:15:40.577Z,5.03
2023-03-10T22:18:08.071Z,5.33
2023-03-10T22:20:35.408Z,5.50
2023-03-10T22:23:02.642Z,5.07
2023-03-10T22:25:30.179Z,4.87
2023-03-10T22:27:57.849Z,5.10
2023-03-10T22:30:26.052Z,5.23
2023-03-10T22:32:53.771Z,5.27
2023-03-10T22:35:21.316Z,4.90
2023-03-10T22:37:48.671Z,4.50
2023-03-10T22:40:17.264Z,5.20
2023-03-10T22:42:44.974Z,5.03
2023-03-10T22:45:22.917Z,4.33
2023-03-10T22:47:50.596Z,4.90
2023-03-10T22:50:19.406Z,5.10
2023-03-10T22:52:46.585Z,4.80
2023-03-10T22:55:15.426Z,4.57
2023-03-10T22:57:42.638Z,4.00
2023-03-10T23:00:14.030Z,4.60
2023-03-10T23:02:41.863Z,4.30
2023-03-10T23:05:09.931Z,4.90
2023-03-10T23:07:37.070Z,4.10
2023-03-10T23:10:06.416Z,4.73
2023-03-10T23:12:33.739Z,4.63
2023-03-10T23:15:01.474Z,4.43
2023-03-10T23:17:29.424Z,4.70
2023-03-10T23:19:57.442Z,4.30
2023-03-10T23:22:24.605Z,4.30
2023-03-10T23:24:51.756Z,4.57
2023-03-10T23:27:19.138Z,4.70
2023-03-10T23:29:46.289Z,4.37
2023-03-10T23:32:13.462Z,4.20
2023-03-10T23:34:40.592Z,4.67
2023-03-10T23:37:07.827Z,4.23
2023-03-10T23:39:35.401Z,4.00
2023-03-10T23:42:02.646Z,4.50
2023-03-10T23:44:29.805Z,4.60
2023-03-10T23:46:56.988Z,4.77
2023-03-10T23:49:24.195Z,4.50
2023-03-10T23:51:53.303Z,4.40
2023-03-10T23:54:22.342Z,4.50
2023-03-10T23:56:50.924Z,4.10
2023-03-10T23:59:18.171Z,4.40
